Time;durP1;ratioP1;P1;durP2;ratioP2;P2;SDS_P1;SDS_P2;PMS_P1;PMS_P2;Temp;Humidity;BMP_temperature;BMP_pressure;BME280_temperature;BME280_humidity;BME280_pressure;Samples;Min_cycle;Max_cycle;Signal;HPM_P1;HPM_P2
2022/12/08 00:00:36;;;;;;;36.72;24.40;;;;;;;7.24;66.80;98359.75;5091373;28;20031;-48
2022/12/08 00:03:01;;;;;;;33.70;23.63;;;;;;;7.35;67.32;98359.25;5092678;28;20020;-48
2022/12/08 00:10:56;;;;;;;37.95;24.45;;;;;;;7.44;66.02;98351.28;5092607;28;20123;-49
2022/12/08 00:13:22;;;;;;;31.48;24.23;;;;;;;7.38;66.58;98350.22;5092752;28;20107;-49
2022/12/08 00:15:47;;;;;;;37.67;22.60;;;;;;;7.37;66.56;98351.25;5092432;28;20107;-48
2022/12/08 00:18:13;;;;;;;31.60;22.52;;;;;;;7.37;66.96;98352.03;5090796;28;20563;-49
2022/12/08 00:20:39;;;;;;;36.38;24.83;;;;;;;7.46;67.16;98352.69;5092690;28;20040;-48
2022/12/08 00:23:04;;;;;;;40.65;27.02;;;;;;;7.57;67.43;98352.19;5092253;28;20442;-48
2022/12/08 00:25:33;;;;;;;71.75;38.53;;;;;;;7.59;67.10;98345.00;5091078;28;20050;-48
2022/12/08 00:27:59;;;;;;;66.68;35.42;;;;;;;7.62;66.82;98354.25;5092170;28;20027;-49
2022/12/08 00:30:24;;;;;;;37.08;24.83;;;;;;;7.58;66.60;98340.75;5090904;28;20027;-48
2022/12/08 00:32:50;;;;;;;89.80;42.83;;;;;;;7.64;66.58;98331.34;5092201;28;20024;-49
2022/12/08 00:35:16;;;;;;;48.33;28.38;;;;;;;7.63;66.74;98324.53;5092101;28;20525;-49
2022/12/08 00:37:41;;;;;;;58.80;32.00;;;;;;;7.62;66.73;98320.28;5090787;28;20035;-49
2022/12/08 00:40:07;;;;;;;49.50;29.25;;;;;;;7.68;67.18;98318.72;5090728;28;20028;-48
2022/12/08 00:42:33;;;;;;;62.20;34.22;;;;;;;7.73;67.06;98317.16;5090778;28;20028;-48
2022/12/08 00:44:58;;;;;;;63.53;34.05;;;;;;;7.65;66.50;98314.69;5091965;28;20103;-49
2022/12/08 00:47:24;;;;;;;50.33;30.55;;;;;;;7.62;66.45;98316.88;5090590;28;20533;-49
2022/12/08 00:49:49;;;;;;;53.85;29.33;;;;;;;7.53;65.97;98316.22;5092094;28;20378;-49
2022/12/08 00:52:15;;;;;;;40.63;26.73;;;;;;;7.45;66.44;98313.75;5090640;28;20062;-48
2022/12/08 00:54:41;;;;;;;36.47;25.83;;;;;;;7.51;66.57;98308.56;5091922;28;20035;-48
2022/12/08 00:57:06;;;;;;;38.88;25.65;;;;;;;7.64;66.87;98317.50;5090591;28;20028;-48
2022/12/08 00:59:32;;;;;;;28.65;20.65;;;;;;;7.64;65.92;98314.88;5090594;28;20440;-48
2022/12/08 01:01:57;;;;;;;33.83;20.67;;;;;;;7.63;66.50;98321.91;5091824;28;20103;-49
2022/12/08 01:04:23;;;;;;;33.72;22.25;;;;;;;7.74;66.37;98324.00;5090556;28;20070;-49
2022/12/08 01:06:49;;;;;;;32.08;21.13;;;;;;;7.68;66.50;98319.53;5091785;28;20647;-48
2022/12/08 01:09:16;;;;;;;29.92;19.98;;;;;;;7.66;66.23;98316.31;5091891;28;20036;-49
2022/12/08 01:11:43;;;;;;;31.45;20.58;;;;;;;7.56;65.88;98310.59;5090457;28;20038;-49
2022/12/08 01:14:09;;;;;;;31.40;19.92;;;;;;;7.53;66.24;98311.00;5091801;28;20529;-48
2022/12/08 01:16:35;;;;;;;28.63;19.45;;;;;;;7.69;66.32;98315.13;5090484;28;20107;-48
2022/12/08 01:19:02;;;;;;;28.58;19.45;;;;;;;7.75;65.65;98316.97;5090250;28;20126;-48
2022/12/08 01:21:27;;;;;;;23.35;18.20;;;;;;;7.62;65.65;98320.28;5090388;28;20469;-48
2022/12/08 01:23:54;;;;;;;29.23;21.38;;;;;;;7.53;65.50;98321.44;5091733;28;20060;-48
2022/12/08 01:26:20;;;;;;;28.00;20.90;;;;;;;7.49;65.68;98321.00;5073552;28;20493;-49
2022/12/08 01:28:46;;;;;;;32.13;21.73;;;;;;;7.44;65.64;98312.94;5091626;28;20020;-48
2022/12/08 01:31:18;;;;;;;30.40;20.67;;;;;;;7.44;65.90;98301.69;5091610;28;20028;-49
2022/12/08 01:33:44;;;;;;;29.13;18.85;;;;;;;7.42;65.39;98312.31;5092824;28;20470;-48
2022/12/08 01:36:19;;;;;;;27.75;19.73;;;;;;;7.38;65.19;98311.06;5095554;28;20038;-48
2022/12/08 01:38:45;;;;;;;28.45;18.42;;;;;;;7.38;65.73;98311.06;5094263;28;20067;-49
2022/12/08 01:41:16;;;;;;;28.05;19.02;;;;;;;7.34;65.06;98302.00;5094104;28;20052;-48
2022/12/08 01:44:09;;;;;;;27.35;19.50;;;;;;;7.19;65.54;98305.50;5095435;28;20024;-49
2022/12/08 01:46:41;;;;;;;34.78;20.65;;;;;;;7.12;66.87;98301.22;5068061;28;20042;-48
2022/12/08 01:49:12;;;;;;;28.55;20.05;;;;;;;7.15;67.12;98295.63;5095301;28;20085;-48
2022/12/08 01:51:44;;;;;;;26.92;19.90;;;;;;;7.15;67.25;98295.63;5077701;28;20126;-48
2022/12/08 01:54:11;;;;;;;25.80;18.23;;;;;;;7.12;67.13;98290.78;5095269;28;20040;-49
2022/12/08 01:56:47;;;;;;;24.33;17.00;;;;;;;7.02;66.97;98293.69;5093815;28;20043;-48
2022/12/08 01:59:13;;;;;;;26.55;17.73;;;;;;;6.97;66.85;98288.25;5095165;28;20032;-48
2022/12/08 02:01:39;;;;;;;28.13;20.13;;;;;;;6.99;66.76;98283.66;5094998;28;20099;-49
2022/12/08 02:04:05;;;;;;;27.65;18.75;;;;;;;7.04;66.89;98294.31;5093579;28;20035;-48
2022/12/08 02:06:37;;;;;;;28.08;18.83;;;;;;;7.14;66.79;98286.19;5094924;28;20458;-48
2022/12/08 02:09:04;;;;;;;24.48;17.92;;;;;;;7.00;66.49;98291.31;5094911;28;20074;-49
2022/12/08 02:11:30;;;;;;;27.05;20.50;;;;;;;6.87;66.16;98287.75;5093509;28;20027;-49
2022/12/08 02:13:58;;;;;;;24.83;19.17;;;;;;;6.82;67.05;98285.69;5093835;28;20028;-48
2022/12/08 02:16:45;;;;;;;29.50;18.77;;;;;;;6.78;67.78;98282.66;5093446;28;20028;-48
2022/12/08 02:19:27;;;;;;;28.30;19.13;;;;;;;6.84;67.66;98275.91;5093110;28;20052;-49
2022/12/08 02:22:08;;;;;;;29.27;19.50;;;;;;;6.74;67.84;98270.16;5094707;28;20024;-48
2022/12/08 02:24:37;;;;;;;27.70;19.73;;;;;;;6.80;67.88;98278.06;5094632;28;20489;-48
2022/12/08 02:27:21;;;;;;;32.50;20.08;;;;;;;6.82;68.16;98267.44;5093191;28;20028;-49
2022/12/08 02:30:11;;;;;;;50.97;33.38;;;;;;;6.81;68.21;98273.66;5094535;28;20035;-49
2022/12/08 02:33:07;;;;;;;29.17;21.73;;;;;;;6.73;68.29;98261.53;5094472;28;20032;-48
2022/12/08 02:35:57;;;;;;;29.98;20.98;;;;;;;6.86;68.50;98263.47;5093195;28;20019;-48
2022/12/08 02:38:54;;;;;;;27.95;21.08;;;;;;;6.77;68.44;98262.78;5094662;28;20035;-48
2022/12/08 02:41:24;;;;;;;;;;;;;;;6.81;68.46;98271.03;5094710;28;20031;-48
2022/12/08 02:44:01;;;;;;;23.98;17.50;;;;;;;6.82;68.50;98262.22;5092996;28;19912;-48
2022/12/08 02:46:33;;;;;;;23.35;17.55;;;;;;;6.91;68.30;98249.88;5092905;28;20020;-49
2022/12/08 02:48:59;;;;;;;40.10;21.88;;;;;;;6.92;68.61;98243.66;5092873;28;20032;-48
2022/12/08 02:51:25;;;;;;;48.42;29.38;;;;;;;6.98;69.54;98240.28;5092882;28;20024;-48
2022/12/08 02:53:51;;;;;;;29.58;19.80;;;;;;;7.22;69.66;98235.66;5094017;28;20020;-48
2022/12/08 02:56:32;;;;;;;25.77;18.90;;;;;;;7.29;68.90;98236.53;5092689;28;20085;-49
2022/12/08 02:59:26;;;;;;;24.70;16.33;;;;;;;7.23;68.87;98237.28;5093973;28;20111;-48
2022/12/08 03:02:22;;;;;;;32.28;19.98;;;;;;;7.21;68.70;98229.63;5092607;28;20034;-48
2022/12/08 03:05:04;;;;;;;27.98;18.00;;;;;;;7.12;68.62;98231.59;5092513;28;20035;-48
2022/12/08 03:07:54;;;;;;;31.65;20.90;;;;;;;7.02;68.68;98219.84;5092475;28;20067;-48
2022/12/08 03:10:35;;;;;;;29.50;21.17;;;;;;;6.89;69.54;98220.56;5093800;28;20028;-48
2022/12/08 03:13:10;;;;;;;27.13;20.40;;;;;;;6.85;69.92;98224.53;5092545;28;20482;-48
2022/12/08 03:15:37;;;;;;;;;;;;;;;6.84;69.71;98217.69;5092828;28;20035;-48
2022/12/08 03:18:07;;;;;;;35.17;22.17;;;;;;;6.77;69.72;98218.44;5093545;28;20385;-48
2022/12/08 03:20:34;;;;;;;31.90;23.30;;;;;;;6.77;69.90;98218.44;5093546;28;20036;-48
2022/12/08 03:23:03;;;;;;;32.45;21.63;;;;;;;6.79;69.94;98208.63;5092159;28;20500;-48
2022/12/08 03:25:32;;;;;;;26.20;19.67;;;;;;;6.96;70.22;98214.41;5093436;28;20028;-48
2022/12/08 03:27:59;;;;;;;35.30;22.55;;;;;;;7.07;69.95;98212.28;5093317;28;20032;-48
2022/12/08 03:30:28;;;;;;;30.08;22.42;;;;;;;6.98;69.28;98214.19;5093329;28;20028;-48
2022/12/08 03:33:09;;;;;;;32.67;23.20;;;;;;;6.82;69.34;98204.03;5093533;28;20394;-48
2022/12/08 03:35:38;;;;;;;33.10;21.90;;;;;;;6.75;69.69;98206.59;5092010;28;20040;-48
2022/12/08 03:38:06;;;;;;;35.25;21.67;;;;;;;6.81;69.83;98195.41;5091889;28;20032;-49
2022/12/08 03:40:32;;;;;;;43.67;21.30;;;;;;;6.82;69.86;98191.00;5091818;28;20509;-48
2022/12/08 03:42:58;;;;;;;26.05;20.20;;;;;;;6.79;69.42;98186.97;5091733;28;20028;-48
2022/12/08 03:45:26;;;;;;;38.33;23.65;;;;;;;6.66;69.04;98190.28;5092054;28;20028;-48
2022/12/08 03:47:52;;;;;;;31.23;19.85;;;;;;;6.58;69.47;98187.81;5091616;28;20077;-49
2022/12/08 03:50:17;;;;;;;29.20;19.75;;;;;;;6.62;69.26;98181.22;5092872;28;20482;-48
2022/12/08 03:52:43;;;;;;;35.65;22.80;;;;;;;6.62;69.77;98185.59;5091684;28;20016;-49
2022/12/08 03:55:09;;;;;;;30.63;21.13;;;;;;;6.55;69.66;98188.97;5074665;28;20024;-48
2022/12/08 03:57:34;;;;;;;29.77;21.88;;;;;;;6.51;69.67;98176.50;5091106;28;20020;-48
2022/12/08 04:00:00;;;;;;;26.25;19.10;;;;;;;6.57;70.16;98178.34;5092830;28;20024;-48
2022/12/08 04:02:25;;;;;;;27.90;20.10;;;;;;;6.55;69.64;98180.34;5092725;28;20389;-48
2022/12/08 04:04:51;;;;;;;30.02;20.50;;;;;;;6.55;70.02;98177.72;5092909;28;20032;-48
2022/12/08 04:07:16;;;;;;;28.33;18.73;;;;;;;6.61;69.63;98171.78;5092553;28;20120;-49
2022/12/08 04:09:43;;;;;;;30.85;18.98;;;;;;;6.67;70.12;98172.81;5091291;28;20493;-49
2022/12/08 04:12:09;;;;;;;28.15;18.05;;;;;;;6.79;69.66;98174.72;5092539;28;20027;-49
2022/12/08 04:14:35;;;;;;;30.75;19.77;;;;;;;6.89;69.96;98171.78;5092546;28;20382;-48
2022/12/08 04:17:00;;;;;;;31.00;20.85;;;;;;;6.98;69.23;98168.06;5091038;28;20020;-49
2022/12/08 04:19:26;;;;;;;25.05;18.85;;;;;;;6.94;69.02;98166.84;5090852;28;20039;-48
2022/12/08 04:21:51;;;;;;;35.53;22.77;;;;;;;6.83;69.08;98172.56;5092328;28;20031;-48
2022/12/08 04:24:17;;;;;;;34.78;22.63;;;;;;;6.83;69.71;98169.16;5092589;28;20098;-49
2022/12/08 04:26:42;;;;;;;31.17;20.45;;;;;;;6.95;69.68;98160.59;5092236;28;20494;-49
2022/12/08 04:29:08;;;;;;;26.23;19.17;;;;;;;7.01;69.47;98161.66;5092311;28;20012;-48
2022/12/08 04:31:33;;;;;;;28.33;20.63;;;;;;;7.02;69.27;98168.47;5074052;28;20417;-48
2022/12/08 04:33:59;;;;;;;30.10;18.35;;;;;;;6.98;69.18;98157.63;5092186;28;20024;-48
2022/12/08 04:36:25;;;;;;;28.20;20.10;;;;;;;6.99;69.10;98161.84;5092115;28;20028;-49
2022/12/08 04:38:50;;;;;;;30.38;20.27;;;;;;;6.92;68.84;98165.38;5092111;28;20012;-49
2022/12/08 04:41:16;;;;;;;25.05;18.15;;;;;;;6.76;68.93;98159.47;5090822;28;20024;-49
2022/12/08 04:43:43;;;;;;;25.00;17.85;;;;;;;6.90;69.50;98160.38;5090707;28;20028;-48
2022/12/08 04:46:09;;;;;;;25.42;17.77;;;;;;;6.97;69.02;98166.44;5092067;28;20398;-49
2022/12/08 04:48:37;;;;;;;25.83;17.70;;;;;;;6.98;68.91;98170.66;5090653;28;20028;-48
2022/12/08 04:51:03;;;;;;;25.73;17.02;;;;;;;6.97;68.66;98165.63;5092006;28;20069;-48
2022/12/08 04:53:28;;;;;;;25.77;18.42;;;;;;;6.91;68.93;98166.41;5090632;28;20032;-48
2022/12/08 04:55:54;;;;;;;33.97;21.02;;;;;;;6.77;68.88;98173.31;5090557;28;20058;-48
2022/12/08 04:58:20;;;;;;;24.05;17.48;;;;;;;6.75;69.11;98172.69;5090587;28;20070;-48
2022/12/08 05:00:47;;;;;;;25.38;17.98;;;;;;;6.72;69.04;98167.84;5090596;28;20039;-48
2022/12/08 05:03:13;;;;;;;27.15;17.27;;;;;;;6.68;69.46;98162.22;5090586;28;20497;-49
2022/12/08 05:05:39;;;;;;;24.05;17.90;;;;;;;6.57;69.01;98160.09;5091847;28;20024;-48
2022/12/08 05:08:05;;;;;;;38.97;17.73;;;;;;;6.41;69.21;98161.16;5091861;28;20493;-49
2022/12/08 05:10:31;;;;;;;58.50;19.80;;;;;;;6.33;69.64;98166.50;5094756;28;20031;-48
2022/12/08 05:12:58;;;;;;;33.28;17.70;;;;;;;6.36;70.12;98153.13;5096008;28;20107;-48
2022/12/08 05:15:24;;;;;;;28.65;17.95;;;;;;;6.37;69.44;98150.28;5094633;28;20024;-48
2022/12/08 05:17:50;;;;;;;38.85;19.40;;;;;;;6.41;70.04;98155.94;5096215;28;20371;-49
2022/12/08 05:20:15;;;;;;;40.38;18.65;;;;;;;6.45;70.26;98154.59;5095681;28;20086;-48
2022/12/08 05:22:42;;;;;;;30.38;18.58;;;;;;;6.48;70.15;98149.00;5095756;28;20445;-49
2022/12/08 05:25:07;;;;;;;46.13;19.42;;;;;;;6.49;69.86;98137.56;5095757;28;20024;-49
2022/12/08 05:27:33;;;;;;;35.53;21.77;;;;;;;6.52;69.26;98141.59;5094532;28;20538;-48
2022/12/08 05:29:59;;;;;;;49.53;19.50;;;;;;;6.46;69.52;98148.38;5094469;28;20085;-48
2022/12/08 05:32:24;;;;;;;31.05;18.60;;;;;;;6.48;69.91;98145.56;5094341;28;20073;-49
2022/12/08 05:34:50;;;;;;;135.48;73.55;;;;;;;6.40;69.91;98146.53;5095552;28;20028;-48
2022/12/08 05:37:16;;;;;;;45.05;23.80;;;;;;;6.28;69.72;98135.78;5095546;28;20393;-48
2022/12/08 05:39:41;;;;;;;35.10;21.55;;;;;;;6.20;69.91;98141.13;5095531;28;20028;-48
2022/12/08 05:42:07;;;;;;;56.63;18.67;;;;;;;6.19;70.13;98132.47;5095393;28;20028;-48
2022/12/08 05:44:32;;;;;;;45.47;21.98;;;;;;;6.10;70.36;98135.41;5094168;28;20055;-48
2022/12/08 05:46:58;;;;;;;38.50;20.05;;;;;;;6.02;69.91;98133.72;5095312;28;20055;-48
2022/12/08 05:49:24;;;;;;;29.63;19.65;;;;;;;6.10;71.12;98135.41;5094024;28;20030;-48
2022/12/08 05:51:52;;;;;;;38.03;19.45;;;;;;;6.19;70.43;98132.47;5095289;28;20020;-49
2022/12/08 05:54:21;;;;;;;35.92;20.83;;;;;;;6.10;70.12;98128.41;5077090;28;20089;-49
2022/12/08 05:56:47;;;;;;;39.13;20.80;;;;;;;5.99;70.93;98131.47;5095137;28;20042;-48
2022/12/08 05:59:13;;;;;;;73.97;21.95;;;;;;;6.04;71.31;98133.53;5095129;28;20043;-48
2022/12/08 06:01:39;;;;;;;59.47;22.02;;;;;;;5.96;71.12;98127.47;5095072;28;20048;-49
2022/12/08 06:04:04;;;;;;;34.80;21.10;;;;;;;5.88;70.71;98126.75;5093815;28;20486;-48
2022/12/08 06:06:30;;;;;;;36.30;19.60;;;;;;;5.95;71.17;98120.63;5094917;28;20482;-48
2022/12/08 06:08:56;;;;;;;37.38;22.55;;;;;;;6.19;71.20;98131.69;5094924;28;20059;-48
2022/12/08 06:11:27;;;;;;;44.97;20.60;;;;;;;6.36;71.09;98121.84;5094889;28;20055;-48
2022/12/08 06:13:55;;;;;;;41.03;23.60;;;;;;;6.35;70.24;98126.22;5093609;28;20482;-48
2022/12/08 06:16:22;;;;;;;49.22;21.63;;;;;;;6.30;69.88;98118.16;5094743;28;20032;-48
2022/12/08 06:18:48;;;;;;;47.88;25.75;;;;;;;6.36;70.89;98127.84;5093188;28;20040;-49
2022/12/08 06:21:15;;;;;;;44.50;23.92;;;;;;;6.47;70.00;98120.50;5094510;28;20036;-47
2022/12/08 06:23:42;;;;;;;43.63;21.88;;;;;;;6.56;69.24;98116.75;5076621;28;20028;-48
2022/12/08 06:26:12;;;;;;;38.60;23.02;;;;;;;6.66;69.84;98119.06;5076401;28;20093;-48
2022/12/08 06:28:39;;;;;;;35.55;22.52;;;;;;;6.91;70.11;98120.25;5093215;28;20517;-48
2022/12/08 06:31:09;;;;;;;37.25;20.08;;;;;;;7.04;68.42;98113.50;5094543;28;20089;-48
2022/12/08 06:33:35;;;;;;;29.13;20.80;;;;;;;6.97;67.86;98127.31;5094710;28;20102;-48
2022/12/08 06:36:01;;;;;;;37.15;21.77;;;;;;;6.89;68.33;98121.44;5094420;28;20024;-49
2022/12/08 06:38:27;;;;;;;42.67;24.73;;;;;;;6.92;68.81;98128.88;5093078;28;20028;-48
2022/12/08 06:40:54;;;;;;;43.33;24.55;;;;;;;7.03;68.40;98117.91;5094252;28;20798;-48
2022/12/08 06:43:19;;;;;;;39.25;23.88;;;;;;;7.08;67.00;98125.16;5094246;28;20486;-48
2022/12/08 06:45:45;;;;;;;42.70;26.67;;;;;;;6.83;67.67;98117.78;5094227;28;20107;-48
2022/12/08 06:48:11;;;;;;;39.72;26.25;;;;;;;6.97;68.76;98113.47;5094414;28;20405;-48
2022/12/08 06:50:36;;;;;;;43.55;24.17;;;;;;;6.89;67.03;98108.41;5094115;28;20525;-48
2022/12/08 06:53:02;;;;;;;37.03;22.98;;;;;;;6.66;68.67;98108.63;5094117;28;20031;-48
2022/12/08 06:55:28;;;;;;;38.47;24.77;;;;;;;6.71;68.39;98114.88;5092745;28;20039;-48
2022/12/08 06:57:53;;;;;;;38.28;23.70;;;;;;;6.62;68.88;98123.88;5092722;28;20508;-48
2022/12/08 07:00:19;;;;;;;42.60;26.10;;;;;;;6.52;68.26;98121.56;5093936;28;20028;-48
2022/12/08 07:02:45;;;;;;;43.22;23.83;;;;;;;6.48;69.57;98117.72;5093926;28;20578;-48
2022/12/08 07:05:11;;;;;;;39.63;24.50;;;;;;;6.51;68.33;98117.34;5092504;28;20016;-48
2022/12/08 07:07:36;;;;;;;51.10;27.95;;;;;;;6.39;68.87;98117.03;5092517;28;20036;-48
2022/12/08 07:10:02;;;;;;;48.67;24.85;;;;;;;6.48;69.72;98114.28;5075558;28;20107;-48
2022/12/08 07:12:28;;;;;;;40.95;23.42;;;;;;;6.51;69.15;98109.50;5093760;28;20031;-48
2022/12/08 07:14:53;;;;;;;43.40;23.85;;;;;;;6.51;69.18;98106.09;5092330;28;20024;-48
2022/12/08 07:17:19;;;;;;;33.47;22.02;;;;;;;6.52;68.36;98103.31;5093574;28;20477;-48
2022/12/08 07:19:45;;;;;;;40.45;25.02;;;;;;;6.63;68.61;98104.59;5092023;28;20048;-48
2022/12/08 07:22:10;;;;;;;42.92;26.92;;;;;;;6.53;68.58;98099.72;5092173;28;20031;-48
2022/12/08 07:24:36;;;;;;;33.88;23.27;;;;;;;6.55;68.65;98107.34;5092161;28;20066;-48
2022/12/08 07:27:01;;;;;;;34.95;24.15;;;;;;;6.51;68.37;98104.31;5093624;28;20108;-48
2022/12/08 07:29:27;;;;;;;40.65;22.42;;;;;;;6.48;68.93;98102.09;5093397;28;20111;-48
2022/12/08 07:31:53;;;;;;;32.38;21.58;;;;;;;6.50;69.00;98099.28;5092616;28;20221;-48
2022/12/08 07:34:18;;;;;;;40.92;25.20;;;;;;;6.73;69.02;98096.44;5093338;28;20171;-48
2022/12/08 07:36:44;;;;;;;42.15;25.48;;;;;;;7.00;68.57;98097.41;5091820;28;20028;-48
2022/12/08 07:39:09;;;;;;;35.83;23.05;;;;;;;7.02;67.73;98082.38;5093212;28;20394;-48
2022/12/08 07:41:35;;;;;;;34.55;22.10;;;;;;;7.04;67.42;98082.97;5093081;28;20019;-48
2022/12/08 07:44:01;;;;;;;35.65;23.38;;;;;;;6.99;66.31;98093.22;5093081;28;20095;-48
2022/12/08 07:46:26;;;;;;;31.55;21.80;;;;;;;6.90;66.68;98081.31;5093011;28;20047;-48
2022/12/08 07:48:53;;;;;;;32.75;22.30;;;;;;;6.70;67.05;98095.03;5092833;28;20088;-48
2022/12/08 07:51:19;;;;;;;33.10;21.15;;;;;;;6.72;67.22;98097.44;5092965;28;20390;-48
2022/12/08 07:53:46;;;;;;;34.22;20.23;;;;;;;6.75;67.75;98099.66;5092837;28;20024;-48
2022/12/08 07:56:13;;;;;;;35.97;20.40;;;;;;;6.75;67.50;98092.66;5093194;28;20054;-48
2022/12/08 07:58:39;;;;;;;39.53;23.15;;;;;;;6.75;67.90;98097.06;5092783;28;20508;-48
2022/12/08 08:01:05;;;;;;;42.15;25.33;;;;;;;6.92;68.21;98094.97;5093060;28;20069;-48
2022/12/08 08:03:31;;;;;;;48.15;23.50;;;;;;;6.92;67.74;98100.19;5092767;28;20394;-48
2022/12/08 08:06:04;;;;;;;54.25;25.55;;;;;;;6.93;67.92;98100.00;5092659;28;20031;-48
2022/12/08 08:08:30;;;;;;;56.95;24.27;;;;;;;7.11;67.77;98109.94;5092568;28;20035;-48
2022/12/08 08:10:56;;;;;;;61.10;23.75;;;;;;;7.34;67.30;98095.78;5092579;28;20020;-48
2022/12/08 08:13:22;;;;;;;65.80;24.63;;;;;;;7.55;66.62;98100.13;5092550;28;20024;-48
2022/12/08 08:15:47;;;;;;;78.43;22.95;;;;;;;7.71;66.18;98094.53;5092435;28;20020;-48
2022/12/08 08:18:13;;;;;;;117.75;46.80;;;;;;;7.90;65.19;98095.59;5092129;28;20028;-49
2022/12/08 08:20:39;;;;;;;178.63;111.07;;;;;;;7.98;65.39;98095.41;5092467;28;20051;-48
2022/12/08 08:23:04;;;;;;;170.55;124.18;;;;;;;8.11;65.31;98094.63;5091213;28;20023;-49
2022/12/08 08:25:30;;;;;;;100.40;49.55;;;;;;;8.22;64.79;98095.03;5092286;28;20394;-49
2022/12/08 08:27:56;;;;;;;41.00;25.58;;;;;;;8.30;64.25;98100.09;5092231;28;20028;-48
2022/12/08 08:30:21;;;;;;;83.43;23.70;;;;;;;8.18;64.21;98099.88;5092311;28;20039;-49
2022/12/08 08:32:48;;;;;;;62.13;22.25;;;;;;;8.17;64.22;98106.91;5092275;28;20032;-49
2022/12/08 08:35:14;;;;;;;52.92;22.67;;;;;;;8.09;63.84;98104.47;5092204;28;20501;-49
2022/12/08 08:37:40;;;;;;;61.35;21.30;;;;;;;8.07;64.04;98103.06;5092201;28;20024;-49
2022/12/08 08:40:06;;;;;;;61.17;23.23;;;;;;;8.23;64.02;98096.66;5092180;28;20028;-48
2022/12/08 08:42:32;;;;;;;58.92;23.25;;;;;;;8.05;62.27;98098.03;5092107;28;20028;-48
2022/12/08 08:44:57;;;;;;;57.28;23.77;;;;;;;7.82;63.64;98097.56;5092097;28;20020;-49
2022/12/08 08:47:23;;;;;;;48.90;23.52;;;;;;;8.09;64.01;98101.88;5092016;28;20021;-48
2022/12/08 08:49:49;;;;;;;45.33;22.35;;;;;;;8.19;62.47;98102.28;5092081;28;20046;-48
2022/12/08 08:52:14;;;;;;;81.78;24.73;;;;;;;8.18;62.57;98105.88;5091909;28;20481;-49
2022/12/08 08:54:40;;;;;;;85.28;24.58;;;;;;;8.35;62.93;98102.88;5090792;28;20024;-48
2022/12/08 08:57:05;;;;;;;124.28;23.73;;;;;;;8.65;62.67;98110.38;5092139;28;20035;-48
2022/12/08 08:59:31;;;;;;;60.83;22.00;;;;;;;8.51;60.94;98115.63;5091864;28;20028;-49
2022/12/08 09:01:57;;;;;;;53.60;19.42;;;;;;;8.50;61.87;98114.00;5091840;28;20039;-49
2022/12/08 09:04:23;;;;;;;39.80;19.08;;;;;;;8.70;61.96;98103.53;5091758;28;20028;-48
2022/12/08 09:06:48;;;;;;;37.13;19.60;;;;;;;8.97;61.36;98109.56;5091744;28;20034;-48
2022/12/08 09:09:15;;;;;;;35.38;20.02;;;;;;;9.10;60.69;98094.81;5091768;28;20040;-48
2022/12/08 09:11:41;;;;;;;30.73;20.00;;;;;;;8.88;60.39;98099.50;5091656;28;20065;-49
2022/12/08 09:14:09;;;;;;;33.85;19.10;;;;;;;8.82;60.92;98100.31;5091789;28;20032;-49
2022/12/08 09:16:35;;;;;;;31.35;21.00;;;;;;;8.67;59.88;98106.56;5091707;28;20069;-48
2022/12/08 09:19:01;;;;;;;35.58;22.02;;;;;;;8.65;60.33;98103.31;5091485;28;20032;-49
2022/12/08 09:21:26;;;;;;;32.97;19.83;;;;;;;8.60;60.16;98103.94;5090346;28;20035;-49
2022/12/08 09:23:55;;;;;;;38.65;22.65;;;;;;;8.80;59.84;98098.69;5091781;28;20020;-49
2022/12/08 09:26:22;;;;;;;44.80;26.48;;;;;;;9.60;60.54;98090.63;5090351;28;20497;-49
2022/12/08 09:28:49;;;;;;;35.67;24.85;;;;;;;10.82;57.88;98086.19;5091616;28;20025;-48
2022/12/08 09:31:16;;;;;;;32.03;21.25;;;;;;;12.13;55.29;98078.75;5090574;28;20032;-48
2022/12/08 09:33:42;;;;;;;31.83;22.27;;;;;;;13.04;52.70;98074.03;5090255;28;20148;-48
2022/12/08 09:36:09;;;;;;;47.70;22.25;;;;;;;13.56;51.22;98065.31;5090260;28;20053;-49
2022/12/08 09:38:35;;;;;;;47.30;21.33;;;;;;;14.19;49.44;98063.56;5090262;28;20035;-49
2022/12/08 09:41:06;;;;;;;45.85;22.85;;;;;;;14.02;48.50;98060.88;5091542;28;20028;-49
2022/12/08 09:43:44;;;;;;;50.63;21.00;;;;;;;13.45;48.16;98066.19;5091501;28;20432;-48
2022/12/08 09:46:16;;;;;;;48.63;21.73;;;;;;;12.69;48.57;98072.19;5091467;28;20024;-49
2022/12/08 09:48:55;;;;;;;57.10;23.50;;;;;;;11.92;49.81;98062.47;5091654;28;20028;-49
2022/12/08 09:51:29;;;;;;;72.45;22.35;;;;;;;11.38;51.00;98067.59;5091488;28;20176;-48
2022/12/08 09:54:23;;;;;;;58.67;22.50;;;;;;;10.97;52.46;98068.28;5090169;28;20039;-49
2022/12/08 09:56:53;;;;;;;34.83;22.10;;;;;;;10.55;51.75;98065.44;5095223;28;20463;-49
2022/12/08 09:59:22;;;;;;;50.25;32.38;;;;;;;9.61;52.59;98073.06;5095519;28;20024;-48
2022/12/08 10:01:49;;;;;;;61.65;31.90;;;;;;;8.83;55.78;98073.91;5093790;28;20020;-49
2022/12/08 10:04:27;;;;;;;71.18;26.45;;;;;;;8.77;57.48;98074.75;5093725;28;20107;-49
2022/12/08 10:07:14;;;;;;;47.85;22.80;;;;;;;8.99;56.31;98068.28;5095227;28;20382;-48
2022/12/08 10:09:49;;;;;;;52.55;22.45;;;;;;;8.90;55.67;98066.09;5095020;28;20028;-49
2022/12/08 10:12:40;;;;;;;35.50;23.77;;;;;;;8.64;57.29;98057.25;5094889;28;20071;-49
2022/12/08 10:15:43;;;;;;;36.50;21.80;;;;;;;8.79;57.19;98054.41;5094803;28;20031;-49
2022/12/08 10:18:28;;;;;;;39.15;22.88;;;;;;;8.73;57.40;98050.00;5094626;28;20095;-49
2022/12/08 10:21:08;;;;;;;34.37;22.03;;;;;;;8.75;57.41;98042.75;5094887;28;20028;-48
2022/12/08 10:23:37;;;;;;;38.22;21.70;;;;;;;8.76;55.82;98044.38;5094787;28;20031;-48
2022/12/08 10:26:06;;;;;;;85.60;26.75;;;;;;;8.36;57.59;98032.09;5094655;28;20024;-49
2022/12/08 10:28:33;;;;;;;51.90;22.05;;;;;;;8.47;57.99;98035.97;5094477;28;20132;-48
2022/12/08 10:30:59;;;;;;;43.33;24.27;;;;;;;8.55;56.89;98029.69;5094471;28;20024;-48
2022/12/08 10:33:27;;;;;;;38.38;23.42;;;;;;;8.20;57.14;98027.28;5094524;28;20016;-48
2022/12/08 10:36:03;;;;;;;44.47;22.52;;;;;;;8.18;58.80;98026.69;5094529;28;20108;-48
2022/12/08 10:38:32;;;;;;;;;;;;;;;8.46;58.38;98012.63;5094847;28;20056;-48
2022/12/08 10:41:09;;;;;;;61.33;24.60;;;;;;;8.24;57.93;98022.47;5093076;28;19915;-48
2022/12/08 10:43:41;;;;;;;41.22;23.75;;;;;;;8.19;58.82;98023.06;5094388;28;20482;-49
2022/12/08 10:46:11;;;;;;;44.63;21.73;;;;;;;8.28;58.41;98015.81;5094377;28;20020;-48
2022/12/08 10:48:51;;;;;;;47.63;21.98;;;;;;;8.39;58.76;98012.59;5094481;28;20024;-48
2022/12/08 10:51:29;;;;;;;40.17;24.63;;;;;;;8.77;58.35;98009.34;5094288;28;20088;-49
2022/12/08 10:53:56;;;;;;;42.00;24.33;;;;;;;8.96;58.50;98007.69;5094210;28;20405;-49
2022/12/08 10:56:28;;;;;;;38.35;21.95;;;;;;;9.30;57.41;97990.03;5094383;28;20367;-49
2022/12/08 10:59:11;;;;;;;37.20;23.15;;;;;;;9.48;56.97;97991.97;5094201;28;20097;-49
2022/12/08 11:01:38;;;;;;;31.13;22.38;;;;;;;9.55;56.99;97988.25;5093959;28;20028;-49
2022/12/08 11:04:12;;;;;;;35.78;20.98;;;;;;;9.77;56.20;97983.50;5092664;28;20031;-48
2022/12/08 11:06:39;;;;;;;32.80;22.02;;;;;;;9.88;55.96;97979.41;5092793;28;20081;-49
2022/12/08 11:09:14;;;;;;;30.02;21.55;;;;;;;9.99;55.36;97983.13;5092523;28;20020;-49
2022/12/08 11:11:49;;;;;;;40.15;22.85;;;;;;;10.05;54.99;97979.66;5092471;28;20044;-49
2022/12/08 11:14:38;;;;;;;29.92;20.98;;;;;;;10.28;54.57;97983.50;5093985;28;20397;-48
2022/12/08 11:17:08;;;;;;;30.48;22.27;;;;;;;10.38;53.86;97973.34;5085972;28;20119;-50
2022/12/08 11:19:42;;;;;;;35.70;22.10;;;;;;;10.26;53.88;97967.19;5093436;28;20162;-49
2022/12/08 11:22:20;;;;;;;32.85;22.10;;;;;;;10.12;54.25;97969.94;5093648;28;20035;-48
2022/12/08 11:24:59;;;;;;;32.03;23.02;;;;;;;10.08;54.37;97965.31;5092204;28;20024;-49
2022/12/08 11:27:25;;;;;;;35.83;23.42;;;;;;;10.12;54.43;97956.81;5092139;28;20136;-49
2022/12/08 11:29:53;;;;;;;37.95;25.60;;;;;;;10.09;54.03;97948.59;5093302;28;20425;-48
2022/12/08 11:32:18;;;;;;;37.28;22.80;;;;;;;10.04;54.38;97946.63;5093351;28;20028;-49
2022/12/08 11:35:03;;;;;;;31.98;21.88;;;;;;;10.16;54.60;97949.31;5093310;28;20529;-49
2022/12/08 11:37:42;;;;;;;34.63;23.63;;;;;;;10.21;53.74;97936.38;5093243;28;20030;-49